sensor_id;sensor_type;location;lat;lon;timestamp;temperature;humidity
20200;DHT22;36284;37.236;-121.934;2023-09-18T00:00:25;25.00;99.90
20200;DHT22;36284;37.236;-121.934;2023-09-18T00:02:52;24.90;99.90
20200;DHT22;36284;37.236;-121.934;2023-09-18T00:05:19;24.80;99.90
20200;DHT22;36284;37.236;-121.934;2023-09-18T00:07:45;25.00;99.90
20200;DHT22;36284;37.236;-121.934;2023-09-18T00:10:13;24.80;99.90
20200;DHT22;36284;37.236;-121.934;2023-09-18T00:12:40;24.70;99.90
20200;DHT22;36284;37.236;-121.934;2023-09-18T00:15:08;24.60;99.90
20200;DHT22;36284;37.236;-121.934;2023-09-18T00:17:38;24.30;99.90
20200;DHT22;36284;37.236;-121.934;2023-09-18T00:20:08;24.60;99.90
20200;DHT22;36284;37.236;-121.934;2023-09-18T00:22:35;24.70;99.90
20200;DHT22;36284;37.236;-121.934;2023-09-18T00:25:02;24.60;99.90
20200;DHT22;36284;37.236;-121.934;2023-09-18T00:27:30;24.30;99.90
20200;DHT22;36284;37.236;-121.934;2023-09-18T00:29:57;24.10;99.90
20200;DHT22;36284;37.236;-121.934;2023-09-18T00:32:24;24.30;99.90
20200;DHT22;36284;37.236;-121.934;2023-09-18T00:34:51;24.30;99.90
20200;DHT22;36284;37.236;-121.934;2023-09-18T00:37:18;24.00;99.90
20200;DHT22;36284;37.236;-121.934;2023-09-18T00:39:45;24.00;99.90
20200;DHT22;36284;37.236;-121.934;2023-09-18T00:42:12;23.90;99.90
20200;DHT22;36284;37.236;-121.934;2023-09-18T00:44:40;23.60;99.90
20200;DHT22;36284;37.236;-121.934;2023-09-18T00:47:11;23.50;99.90
20200;DHT22;36284;37.236;-121.934;2023-09-18T00:49:40;23.50;99.90
20200;DHT22;36284;37.236;-121.934;2023-09-18T00:52:08;23.40;99.90
20200;DHT22;36284;37.236;-121.934;2023-09-18T00:54:37;23.60;99.90
20200;DHT22;36284;37.236;-121.934;2023-09-18T00:57:05;23.50;99.90
20200;DHT22;36284;37.236;-121.934;2023-09-18T00:59:32;23.60;99.90
20200;DHT22;36284;37.236;-121.934;2023-09-18T01:02:00;23.30;99.90
20200;DHT22;36284;37.236;-121.934;2023-09-18T01:04:28;23.00;99.90
20200;DHT22;36284;37.236;-121.934;2023-09-18T01:06:56;22.80;99.90
20200;DHT22;36284;37.236;-121.934;2023-09-18T01:09:25;22.60;99.90
20200;DHT22;36284;37.236;-121.934;2023-09-18T01:12:00;22.70;99.90
20200;DHT22;36284;37.236;-121.934;2023-09-18T01:14:50;22.60;99.90
20200;DHT22;36284;37.236;-121.934;2023-09-18T01:17:19;22.80;99.90
20200;DHT22;36284;37.236;-121.934;2023-09-18T01:19:47;22.60;99.90
20200;DHT22;36284;37.236;-121.934;2023-09-18T01:22:16;22.40;99.90
20200;DHT22;36284;37.236;-121.934;2023-09-18T01:24:45;22.40;99.90
20200;DHT22;36284;37.236;-121.934;2023-09-18T01:27:15;22.50;99.90
20200;DHT22;36284;37.236;-121.934;2023-09-18T01:29:46;22.60;99.90
20200;DHT22;36284;37.236;-121.934;2023-09-18T01:32:14;22.50;99.90
20200;DHT22;36284;37.236;-121.934;2023-09-18T01:34:51;22.50;99.90
20200;DHT22;36284;37.236;-121.934;2023-09-18T01:37:25;22.40;99.90
20200;DHT22;36284;37.236;-121.934;2023-09-18T01:39:53;22.20;99.90
20200;DHT22;36284;37.236;-121.934;2023-09-18T01:42:27;22.30;99.90
20200;DHT22;36284;37.236;-121.934;2023-09-18T01:44:55;22.40;99.90
20200;DHT22;36284;37.236;-121.934;2023-09-18T01:47:22;22.20;99.90
20200;DHT22;36284;37.236;-121.934;2023-09-18T01:49:49;22.00;99.90
20200;DHT22;36284;37.236;-121.934;2023-09-18T01:52:17;21.90;99.90
20200;DHT22;36284;37.236;-121.934;2023-09-18T01:54:44;21.90;99.90
20200;DHT22;36284;37.236;-121.934;2023-09-18T01:57:11;21.70;99.90
20200;DHT22;36284;37.236;-121.934;2023-09-18T01:59:38;21.60;99.90
20200;DHT22;36284;37.236;-121.934;2023-09-18T02:02:05;21.60;99.90
20200;DHT22;36284;37.236;-121.934;2023-09-18T02:04:36;21.40;99.90
20200;DHT22;36284;37.236;-121.934;2023-09-18T02:07:03;21.20;99.90
20200;DHT22;36284;37.236;-121.934;2023-09-18T02:09:30;21.20;99.90
20200;DHT22;36284;37.236;-121.934;2023-09-18T02:11:57;21.20;99.90
20200;DHT22;36284;37.236;-121.934;2023-09-18T02:14:24;21.20;99.90
20200;DHT22;36284;37.236;-121.934;2023-09-18T02:16:51;21.10;99.90
20200;DHT22;36284;37.236;-121.934;2023-09-18T02:19:18;21.10;99.90
20200;DHT22;36284;37.236;-121.934;2023-09-18T02:21:46;21.00;99.90
20200;DHT22;36284;37.236;-121.934;2023-09-18T02:24:13;21.00;99.90
20200;DHT22;36284;37.236;-121.934;2023-09-18T02:26:40;20.90;99.90
20200;DHT22;36284;37.236;-121.934;2023-09-18T02:29:09;20.90;99.90
20200;DHT22;36284;37.236;-121.934;2023-09-18T02:31:41;20.80;99.90
20200;DHT22;36284;37.236;-121.934;2023-09-18T02:34:08;20.70;99.90
20200;DHT22;36284;37.236;-121.934;2023-09-18T02:36:36;20.70;99.90
20200;DHT22;36284;37.236;-121.934;2023-09-18T02:39:03;20.60;99.90
20200;DHT22;36284;37.236;-121.934;2023-09-18T02:41:30;20.50;99.90
20200;DHT22;36284;37.236;-121.934;2023-09-18T02:43:58;20.50;99.90
20200;DHT22;36284;37.236;-121.934;2023-09-18T02:46:25;20.40;99.90
20200;DHT22;36284;37.236;-121.934;2023-09-18T02:48:52;20.40;99.90
20200;DHT22;36284;37.236;-121.934;2023-09-18T02:51:20;20.40;99.90
20200;DHT22;36284;37.236;-121.934;2023-09-18T02:53:47;20.30;99.90
20200;DHT22;36284;37.236;-121.934;2023-09-18T02:56:14;20.20;99.90
20200;DHT22;36284;37.236;-121.934;2023-09-18T02:58:41;20.20;99.90
20200;DHT22;36284;37.236;-121.934;2023-09-18T03:01:08;20.10;99.90
20200;DHT22;36284;37.236;-121.934;2023-09-18T03:03:35;20.10;99.90
20200;DHT22;36284;37.236;-121.934;2023-09-18T03:06:03;20.10;99.90
20200;DHT22;36284;37.236;-121.934;2023-09-18T03:08:31;20.00;99.90
20200;DHT22;36284;37.236;-121.934;2023-09-18T03:10:58;19.90;99.90
20200;DHT22;36284;37.236;-121.934;2023-09-18T03:13:27;19.90;99.90
20200;DHT22;36284;37.236;-121.934;2023-09-18T03:15:55;19.90;99.90
20200;DHT22;36284;37.236;-121.934;2023-09-18T03:18:22;19.80;99.90
20200;DHT22;36284;37.236;-121.934;2023-09-18T03:20:49;19.80;99.90
20200;DHT22;36284;37.236;-121.934;2023-09-18T03:23:16;19.70;99.90
20200;DHT22;36284;37.236;-121.934;2023-09-18T03:25:44;19.50;99.90
20200;DHT22;36284;37.236;-121.934;2023-09-18T03:28:11;19.50;99.90
20200;DHT22;36284;37.236;-121.934;2023-09-18T03:30:38;19.40;99.90
20200;DHT22;36284;37.236;-121.934;2023-09-18T03:33:05;19.10;99.90
20200;DHT22;36284;37.236;-121.934;2023-09-18T03:35:32;18.90;99.90
20200;DHT22;36284;37.236;-121.934;2023-09-18T03:37:59;18.80;99.90
20200;DHT22;36284;37.236;-121.934;2023-09-18T03:40:26;18.80;99.90
20200;DHT22;36284;37.236;-121.934;2023-09-18T03:42:53;18.80;99.90
20200;DHT22;36284;37.236;-121.934;2023-09-18T03:45:20;18.80;99.90
20200;DHT22;36284;37.236;-121.934;2023-09-18T03:47:47;18.70;99.90
20200;DHT22;36284;37.236;-121.934;2023-09-18T03:50:16;18.50;99.90
20200;DHT22;36284;37.236;-121.934;2023-09-18T03:52:43;18.50;99.90
20200;DHT22;36284;37.236;-121.934;2023-09-18T03:55:10;18.60;99.90
20200;DHT22;36284;37.236;-121.934;2023-09-18T03:57:38;18.50;99.90
20200;DHT22;36284;37.236;-121.934;2023-09-18T04:00:06;18.50;99.90
20200;DHT22;36284;37.236;-121.934;2023-09-18T04:02:34;18.40;99.90
20200;DHT22;36284;37.236;-121.934;2023-09-18T04:05:01;18.40;99.90
20200;DHT22;36284;37.236;-121.934;2023-09-18T04:07:28;18.50;99.90
20200;DHT22;36284;37.236;-121.934;2023-09-18T04:09:55;18.50;99.90
20200;DHT22;36284;37.236;-121.934;2023-09-18T04:12:22;18.60;99.90
20200;DHT22;36284;37.236;-121.934;2023-09-18T04:14:49;18.60;99.90
20200;DHT22;36284;37.236;-121.934;2023-09-18T04:17:17;18.60;99.90
20200;DHT22;36284;37.236;-121.934;2023-09-18T04:19:44;18.40;99.90
20200;DHT22;36284;37.236;-121.934;2023-09-18T04:22:12;18.40;99.90
20200;DHT22;36284;37.236;-121.934;2023-09-18T04:24:39;18.30;99.90
20200;DHT22;36284;37.236;-121.934;2023-09-18T04:27:07;18.30;99.90
20200;DHT22;36284;37.236;-121.934;2023-09-18T04:29:34;18.20;99.90
20200;DHT22;36284;37.236;-121.934;2023-09-18T04:32:03;18.10;99.90
20200;DHT22;36284;37.236;-121.934;2023-09-18T04:34:30;18.10;99.90
20200;DHT22;36284;37.236;-121.934;2023-09-18T04:36:57;18.00;99.90
20200;DHT22;36284;37.236;-121.934;2023-09-18T04:39:24;17.90;99.90
20200;DHT22;36284;37.236;-121.934;2023-09-18T04:41:51;17.80;99.90
20200;DHT22;36284;37.236;-121.934;2023-09-18T04:44:18;17.80;99.90
20200;DHT22;36284;37.236;-121.934;2023-09-18T04:46:45;17.80;99.90
20200;DHT22;36284;37.236;-121.934;2023-09-18T04:51:39;17.60;99.90
20200;DHT22;36284;37.236;-121.934;2023-09-18T04:54:06;17.70;99.90
20200;DHT22;36284;37.236;-121.934;2023-09-18T04:56:33;17.70;99.90
20200;DHT22;36284;37.236;-121.934;2023-09-18T04:59:00;17.70;99.90
20200;DHT22;36284;37.236;-121.934;2023-09-18T05:01:27;17.60;99.90
20200;DHT22;36284;37.236;-121.934;2023-09-18T05:03:56;17.60;99.90
20200;DHT22;36284;37.236;-121.934;2023-09-18T05:06:23;17.60;99.90
20200;DHT22;36284;37.236;-121.934;2023-09-18T05:08:50;17.60;99.90
20200;DHT22;36284;37.236;-121.934;2023-09-18T05:11:18;17.60;99.90
20200;DHT22;36284;37.236;-121.934;2023-09-18T05:13:45;17.50;99.90
20200;DHT22;36284;37.236;-121.934;2023-09-18T05:16:12;17.60;99.90
20200;DHT22;36284;37.236;-121.934;2023-09-18T05:18:40;17.30;99.90
20200;DHT22;36284;37.236;-121.934;2023-09-18T05:21:09;17.30;99.90
20200;DHT22;36284;37.236;-121.934;2023-09-18T05:23:36;17.10;99.90
20200;DHT22;36284;37.236;-121.934;2023-09-18T05:26:03;17.10;99.90
20200;DHT22;36284;37.236;-121.934;2023-09-18T05:28:31;17.00;99.90
20200;DHT22;36284;37.236;-121.934;2023-09-18T05:30:58;17.00;99.90
20200;DHT22;36284;37.236;-121.934;2023-09-18T05:33:25;17.00;99.90
20200;DHT22;36284;37.236;-121.934;2023-09-18T05:35:52;16.90;99.90
20200;DHT22;36284;37.236;-121.934;2023-09-18T05:38:20;16.90;99.90
20200;DHT22;36284;37.236;-121.934;2023-09-18T05:40:49;16.90;99.90
20200;DHT22;36284;37.236;-121.934;2023-09-18T05:43:16;16.90;99.90
20200;DHT22;36284;37.236;-121.934;2023-09-18T05:45:44;16.90;99.90
20200;DHT22;36284;37.236;-121.934;2023-09-18T05:48:11;16.90;99.90
20200;DHT22;36284;37.236;-121.934;2023-09-18T05:50:38;16.70;99.90
20200;DHT22;36284;37.236;-121.934;2023-09-18T05:53:07;16.70;99.90
20200;DHT22;36284;37.236;-121.934;2023-09-18T05:55:34;16.70;99.90
20200;DHT22;36284;37.236;-121.934;2023-09-18T05:58:01;16.70;99.90
20200;DHT22;36284;37.236;-121.934;2023-09-18T06:00:30;16.70;99.90
20200;DHT22;36284;37.236;-121.934;2023-09-18T06:02:57;16.60;99.90
20200;DHT22;36284;37.236;-121.934;2023-09-18T06:05:25;16.60;99.90
20200;DHT22;36284;37.236;-121.934;2023-09-18T06:07:52;16.60;99.90
20200;DHT22;36284;37.236;-121.934;2023-09-18T06:10:19;16.60;99.90
20200;DHT22;36284;37.236;-121.934;2023-09-18T06:12:47;16.50;99.90
20200;DHT22;36284;37.236;-121.934;2023-09-18T06:15:14;16.40;99.90
20200;DHT22;36284;37.236;-121.934;2023-09-18T06:17:42;16.40;99.90
20200;DHT22;36284;37.236;-121.934;2023-09-18T06:20:11;16.40;99.90
20200;DHT22;36284;37.236;-121.934;2023-09-18T06:22:42;16.50;99.90
20200;DHT22;36284;37.236;-121.934;2023-09-18T06:25:09;16.40;99.90
20200;DHT22;36284;37.236;-121.934;2023-09-18T06:27:37;16.40;99.90
20200;DHT22;36284;37.236;-121.934;2023-09-18T06:30:07;16.30;99.90
20200;DHT22;36284;37.236;-121.934;2023-09-18T06:32:35;16.30;99.90
20200;DHT22;36284;37.236;-121.934;2023-09-18T06:35:03;16.30;99.90
20200;DHT22;36284;37.236;-121.934;2023-09-18T06:37:30;16.30;99.90
20200;DHT22;36284;37.236;-121.934;2023-09-18T06:39:57;16.20;99.90
20200;DHT22;36284;37.236;-121.934;2023-09-18T06:42:24;16.20;99.90
20200;DHT22;36284;37.236;-121.934;2023-09-18T06:44:51;16.20;99.90
20200;DHT22;36284;37.236;-121.934;2023-09-18T06:47:19;16.10;99.90
20200;DHT22;36284;37.236;-121.934;2023-09-18T06:49:46;16.10;99.90
20200;DHT22;36284;37.236;-121.934;2023-09-18T06:52:13;16.20;99.90
20200;DHT22;36284;37.236;-121.934;2023-09-18T06:54:40;16.20;99.90
20200;DHT22;36284;37.236;-121.934;2023-09-18T06:57:08;16.10;99.90
20200;DHT22;36284;37.236;-121.934;2023-09-18T06:59:35;16.00;99.90
20200;DHT22;36284;37.236;-121.934;2023-09-18T07:02:02;16.00;99.90
20200;DHT22;36284;37.236;-121.934;2023-09-18T07:04:30;16.00;99.90
20200;DHT22;36284;37.236;-121.934;2023-09-18T07:06:57;16.00;99.90
20200;DHT22;36284;37.236;-121.934;2023-09-18T07:09:24;15.90;99.90
20200;DHT22;36284;37.236;-121.934;2023-09-18T07:11:52;15.90;99.90
20200;DHT22;36284;37.236;-121.934;2023-09-18T07:14:19;15.80;99.90
20200;DHT22;36284;37.236;-121.934;2023-09-18T07:16:46;15.80;99.90
20200;DHT22;36284;37.236;-121.934;2023-09-18T07:19:13;15.80;99.90
20200;DHT22;36284;37.236;-121.934;2023-09-18T07:21:43;15.80;99.90
20200;DHT22;36284;37.236;-121.934;2023-09-18T07:24:10;15.80;99.90
20200;DHT22;36284;37.236;-121.934;2023-09-18T07:26:46;15.80;99.90
20200;DHT22;36284;37.236;-121.934;2023-09-18T07:29:17;15.80;99.90
20200;DHT22;36284;37.236;-121.934;2023-09-18T07:31:44;15.80;99.90
20200;DHT22;36284;37.236;-121.934;2023-09-18T07:34:11;15.70;99.90
20200;DHT22;36284;37.236;-121.934;2023-09-18T07:36:38;15.50;99.90
20200;DHT22;36284;37.236;-121.934;2023-09-18T07:39:05;15.50;99.90
20200;DHT22;36284;37.236;-121.934;2023-09-18T07:41:32;15.50;99.90
20200;DHT22;36284;37.236;-121.934;2023-09-18T07:43:59;15.50;99.90
20200;DHT22;36284;37.236;-121.934;2023-09-18T07:46:26;15.50;99.90
20200;DHT22;36284;37.236;-121.934;2023-09-18T07:48:53;15.50;99.90
20200;DHT22;36284;37.236;-121.934;2023-09-18T07:51:21;15.40;99.90
20200;DHT22;36284;37.236;-121.934;2023-09-18T07:53:48;15.40;99.90
20200;DHT22;36284;37.236;-121.934;2023-09-18T07:56:15;15.40;99.90
20200;DHT22;36284;37.236;-121.934;2023-09-18T07:58:42;15.40;99.90
20200;DHT22;36284;37.236;-121.934;2023-09-18T08:01:09;15.40;99.90
20200;DHT22;36284;37.236;-121.934;2023-09-18T08:03:36;15.30;99.90
20200;DHT22;36284;37.236;-121.934;2023-09-18T08:06:03;15.30;99.90
20200;DHT22;36284;37.236;-121.934;2023-09-18T08:08:31;15.30;99.90
20200;DHT22;36284;37.236;-121.934;2023-09-18T08:11:06;15.30;99.90
20200;DHT22;36284;37.236;-121.934;2023-09-18T08:13:35;15.20;99.90
20200;DHT22;36284;37.236;-121.934;2023-09-18T08:16:05;15.20;99.90
20200;DHT22;36284;37.236;-121.934;2023-09-18T08:18:32;15.20;99.90
20200;DHT22;36284;37.236;-121.934;2023-09-18T08:20:59;15.30;99.90
20200;DHT22;36284;37.236;-121.934;2023-09-18T08:23:26;15.10;99.90
20200;DHT22;36284;37.236;-121.934;2023-09-18T08:25:54;15.20;99.90
20200;DHT22;36284;37.236;-121.934;2023-09-18T08:28:24;15.10;99.90
20200;DHT22;36284;37.236;-121.934;2023-09-18T08:30:51;15.20;99.90
20200;DHT22;36284;37.236;-121.934;2023-09-18T08:33:18;15.20;99.90
20200;DHT22;36284;37.236;-121.934;2023-09-18T08:35:50;15.10;99.90
20200;DHT22;36284;37.236;-121.934;2023-09-18T08:38:17;15.10;99.90
20200;DHT22;36284;37.236;-121.934;2023-09-18T08:40:44;15.10;99.90
20200;DHT22;36284;37.236;-121.934;2023-09-18T08:43:12;15.20;99.90
20200;DHT22;36284;37.236;-121.934;2023-09-18T08:48:16;15.00;99.90
20200;DHT22;36284;37.236;-121.934;2023-09-18T08:50:44;15.00;99.90
20200;DHT22;36284;37.236;-121.934;2023-09-18T08:53:12;15.00;99.90
20200;DHT22;36284;37.236;-121.934;2023-09-18T08:55:39;14.90;99.90
20200;DHT22;36284;37.236;-121.934;2023-09-18T08:58:07;14.90;99.90
20200;DHT22;36284;37.236;-121.934;2023-09-18T09:00:37;14.90;99.90
20200;DHT22;36284;37.236;-121.934;2023-09-18T09:03:04;14.90;99.90
20200;DHT22;36284;37.236;-121.934;2023-09-18T09:05:32;14.80;99.90
20200;DHT22;36284;37.236;-121.934;2023-09-18T09:07:59;14.80;99.90
20200;DHT22;36284;37.236;-121.934;2023-09-18T09:10:27;14.70;99.90
20200;DHT22;36284;37.236;-121.934;2023-09-18T09:12:59;14.70;99.90
20200;DHT22;36284;37.236;-121.934;2023-09-18T09:15:29;14.80;99.90
20200;DHT22;36284;37.236;-121.934;2023-09-18T09:18:06;14.70;99.90
20200;DHT22;36284;37.236;-121.934;2023-09-18T09:20:34;14.70;99.90
20200;DHT22;36284;37.236;-121.934;2023-09-18T09:23:06;14.60;99.90
20200;DHT22;36284;37.236;-121.934;2023-09-18T09:25:33;14.60;99.90
20200;DHT22;36284;37.236;-121.934;2023-09-18T09:28:06;14.50;99.90
20200;DHT22;36284;37.236;-121.934;2023-09-18T09:30:35;14.60;99.90
20200;DHT22;36284;37.236;-121.934;2023-09-18T09:33:06;14.50;99.90
20200;DHT22;36284;37.236;-121.934;2023-09-18T09:35:37;14.60;99.90
20200;DHT22;36284;37.236;-121.934;2023-09-18T09:38:09;14.60;99.90
20200;DHT22;36284;37.236;-121.934;2023-09-18T09:40:41;14.60;99.90
20200;DHT22;36284;37.236;-121.934;2023-09-18T09:43:11;14.50;99.90
20200;DHT22;36284;37.236;-121.934;2023-09-18T09:45:41;14.40;99.90
20200;DHT22;36284;37.236;-121.934;2023-09-18T09:48:08;14.50;99.90
20200;DHT22;36284;37.236;-121.934;2023-09-18T09:50:45;14.40;99.90
20200;DHT22;36284;37.236;-121.934;2023-09-18T09:53:17;14.50;99.90
20200;DHT22;36284;37.236;-121.934;2023-09-18T09:55:45;14.40;99.90
20200;DHT22;36284;37.236;-121.934;2023-09-18T09:58:12;14.40;99.90
20200;DHT22;36284;37.236;-121.934;2023-09-18T10:00:50;14.30;99.90
20200;DHT22;36284;37.236;-121.934;2023-09-18T10:03:19;14.30;99.90
20200;DHT22;36284;37.236;-121.934;2023-09-18T10:05:50;14.20;99.90
20200;DHT22;36284;37.236;-121.934;2023-09-18T10:13:26;14.20;99.90
20200;DHT22;36284;37.236;-121.934;2023-09-18T10:15:54;14.20;99.90
20200;DHT22;36284;37.236;-121.934;2023-09-18T10:18:26;14.20;99.90
20200;DHT22;36284;37.236;-121.934;2023-09-18T10:21:01;14.10;99.90
20200;DHT22;36284;37.236;-121.934;2023-09-18T10:23:48;14.00;99.90
20200;DHT22;36284;37.236;-121.934;2023-09-18T10:26:23;14.10;99.90
20200;DHT22;36284;37.236;-121.934;2023-09-18T10:28:56;14.00;99.90
20200;DHT22;36284;37.236;-121.934;2023-09-18T10:31:29;14.00;99.90
20200;DHT22;36284;37.236;-121.934;2023-09-18T10:33:57;14.00;99.90
20200;DHT22;36284;37.236;-121.934;2023-09-18T10:36:25;13.90;99.90
20200;DHT22;36284;37.236;-121.934;2023-09-18T10:38:55;13.90;99.90
20200;DHT22;36284;37.236;-121.934;2023-09-18T10:41:23;13.80;99.90
20200;DHT22;36284;37.236;-121.934;2023-09-18T10:43:53;13.80;99.90
20200;DHT22;36284;37.236;-121.934;2023-09-18T10:46:24;13.90;99.90
20200;DHT22;36284;37.236;-121.934;2023-09-18T10:48:52;13.90;99.90
20200;DHT22;36284;37.236;-121.934;2023-09-18T10:51:21;13.90;99.90
20200;DHT22;36284;37.236;-121.934;2023-09-18T10:53:48;13.90;99.90
20200;DHT22;36284;37.236;-121.934;2023-09-18T10:56:16;13.90;99.90
20200;DHT22;36284;37.236;-121.934;2023-09-18T10:58:43;13.90;99.90
20200;DHT22;36284;37.236;-121.934;2023-09-18T11:01:14;14.00;99.90
20200;DHT22;36284;37.236;-121.934;2023-09-18T11:03:41;14.00;99.90
20200;DHT22;36284;37.236;-121.934;2023-09-18T11:06:11;13.80;99.90
20200;DHT22;36284;37.236;-121.934;2023-09-18T11:08:48;14.00;99.90
20200;DHT22;36284;37.236;-121.934;2023-09-18T11:11:18;13.90;99.90
20200;DHT22;36284;37.236;-121.934;2023-09-18T11:13:52;13.90;99.90
20200;DHT22;36284;37.236;-121.934;2023-09-18T11:21:28;13.60;99.90
20200;DHT22;36284;37.236;-121.934;2023-09-18T11:24:21;13.60;99.90
20200;DHT22;36284;37.236;-121.934;2023-09-18T11:26:50;13.60;99.90
20200;DHT22;36284;37.236;-121.934;2023-09-18T11:29:22;13.60;99.90
20200;DHT22;36284;37.236;-121.934;2023-09-18T11:31:54;13.70;99.90
20200;DHT22;36284;37.236;-121.934;2023-09-18T11:34:23;13.70;99.90
20200;DHT22;36284;37.236;-121.934;2023-09-18T11:36:51;13.70;99.90
20200;DHT22;36284;37.236;-121.934;2023-09-18T11:39:37;13.70;99.90
20200;DHT22;36284;37.236;-121.934;2023-09-18T11:42:18;13.70;99.90
20200;DHT22;36284;37.236;-121.934;2023-09-18T11:44:46;13.70;99.90
20200;DHT22;36284;37.236;-121.934;2023-09-18T11:47:17;13.70;99.90
20200;DHT22;36284;37.236;-121.934;2023-09-18T11:49:52;13.70;99.90
20200;DHT22;36284;37.236;-121.934;2023-09-18T11:52:22;13.60;99.90
20200;DHT22;36284;37.236;-121.934;2023-09-18T11:54:49;13.60;99.90
20200;DHT22;36284;37.236;-121.934;2023-09-18T11:57:20;13.50;99.90
20200;DHT22;36284;37.236;-121.934;2023-09-18T11:59:48;13.50;99.90
20200;DHT22;36284;37.236;-121.934;2023-09-18T12:02:32;13.50;99.90
20200;DHT22;36284;37.236;-121.934;2023-09-18T12:05:10;13.50;99.90
20200;DHT22;36284;37.236;-121.934;2023-09-18T12:07:38;13.60;99.90
20200;DHT22;36284;37.236;-121.934;2023-09-18T12:10:06;13.60;99.90
20200;DHT22;36284;37.236;-121.934;2023-09-18T12:12:35;13.70;99.90
20200;DHT22;36284;37.236;-121.934;2023-09-18T12:15:02;13.60;99.90
20200;DHT22;36284;37.236;-121.934;2023-09-18T12:17:30;13.60;99.90
20200;DHT22;36284;37.236;-121.934;2023-09-18T12:19:57;13.60;99.90
20200;DHT22;36284;37.236;-121.934;2023-09-18T12:22:25;13.50;99.90
20200;DHT22;36284;37.236;-121.934;2023-09-18T12:24:52;13.40;99.90
20200;DHT22;36284;37.236;-121.934;2023-09-18T12:27:19;13.40;99.90
20200;DHT22;36284;37.236;-121.934;2023-09-18T12:29:46;13.30;99.90
20200;DHT22;36284;37.236;-121.934;2023-09-18T12:32:13;13.30;99.90
20200;DHT22;36284;37.236;-121.934;2023-09-18T12:34:41;13.30;99.90
20200;DHT22;36284;37.236;-121.934;2023-09-18T12:37:08;13.30;99.90
20200;DHT22;36284;37.236;-121.934;2023-09-18T12:39:38;13.30;99.90
20200;DHT22;36284;37.236;-121.934;2023-09-18T12:42:05;13.30;99.90
20200;DHT22;36284;37.236;-121.934;2023-09-18T12:44:33;13.30;99.90
20200;DHT22;36284;37.236;-121.934;2023-09-18T12:47:00;13.40;99.90
20200;DHT22;36284;37.236;-121.934;2023-09-18T12:49:30;13.40;99.90
20200;DHT22;36284;37.236;-121.934;2023-09-18T12:52:01;13.40;99.90
20200;DHT22;36284;37.236;-121.934;2023-09-18T12:54:46;13.30;99.90
20200;DHT22;36284;37.236;-121.934;2023-09-18T12:57:20;13.30;99.90
20200;DHT22;36284;37.236;-121.934;2023-09-18T12:59:47;13.30;99.90
20200;DHT22;36284;37.236;-121.934;2023-09-18T13:02:18;13.30;99.90
20200;DHT22;36284;37.236;-121.934;2023-09-18T13:04:52;13.20;99.90
20200;DHT22;36284;37.236;-121.934;2023-09-18T13:07:20;13.30;99.90
20200;DHT22;36284;37.236;-121.934;2023-09-18T13:10:02;13.40;99.90
20200;DHT22;36284;37.236;-121.934;2023-09-18T13:12:42;13.50;99.90
20200;DHT22;36284;37.236;-121.934;2023-09-18T13:15:10;13.60;99.90
20200;DHT22;36284;37.236;-121.934;2023-09-18T13:20:20;13.70;99.90
20200;DHT22;36284;37.236;-121.934;2023-09-18T13:22:51;13.80;99.90
20200;DHT22;36284;37.236;-121.934;2023-09-18T13:25:28;13.80;99.90
20200;DHT22;36284;37.236;-121.934;2023-09-18T13:27:55;13.90;99.90
20200;DHT22;36284;37.236;-121.934;2023-09-18T13:30:22;13.90;99.90
20200;DHT22;36284;37.236;-121.934;2023-09-18T13:32:50;13.90;99.90
20200;DHT22;36284;37.236;-121.934;2023-09-18T13:35:17;14.00;99.90
20200;DHT22;36284;37.236;-121.934;2023-09-18T13:37:45;14.00;99.90
20200;DHT22;36284;37.236;-121.934;2023-09-18T13:40:12;14.00;99.90
20200;DHT22;36284;37.236;-121.934;2023-09-18T13:42:39;14.10;99.90
20200;DHT22;36284;37.236;-121.934;2023-09-18T13:45:06;14.10;99.90
20200;DHT22;36284;37.236;-121.934;2023-09-18T13:47:34;14.20;99.90
20200;DHT22;36284;37.236;-121.934;2023-09-18T13:50:04;14.20;99.90
20200;DHT22;36284;37.236;-121.934;2023-09-18T13:52:32;14.20;99.90
20200;DHT22;36284;37.236;-121.934;2023-09-18T13:55:01;14.30;99.90
20200;DHT22;36284;37.236;-121.934;2023-09-18T13:57:28;14.30;99.90
20200;DHT22;36284;37.236;-121.934;2023-09-18T13:59:55;14.30;99.90
20200;DHT22;36284;37.236;-121.934;2023-09-18T14:02:22;14.40;99.90
20200;DHT22;36284;37.236;-121.934;2023-09-18T14:04:56;14.50;99.90
20200;DHT22;36284;37.236;-121.934;2023-09-18T14:07:23;14.50;99.90
20200;DHT22;36284;37.236;-121.934;2023-09-18T14:09:50;14.60;99.90
20200;DHT22;36284;37.236;-121.934;2023-09-18T14:12:17;14.60;99.90
20200;DHT22;36284;37.236;-121.934;2023-09-18T14:14:44;14.70;99.90
20200;DHT22;36284;37.236;-121.934;2023-09-18T14:17:11;14.70;99.90
20200;DHT22;36284;37.236;-121.934;2023-09-18T14:19:39;14.80;99.90
20200;DHT22;36284;37.236;-121.934;2023-09-18T14:22:06;14.80;99.90
20200;DHT22;36284;37.236;-121.934;2023-09-18T14:24:33;14.80;99.90
20200;DHT22;36284;37.236;-121.934;2023-09-18T14:27:04;14.90;99.90
20200;DHT22;36284;37.236;-121.934;2023-09-18T14:29:31;14.90;99.90
20200;DHT22;36284;37.236;-121.934;2023-09-18T14:32:02;14.90;99.90
20200;DHT22;36284;37.236;-121.934;2023-09-18T14:34:31;15.00;99.90
20200;DHT22;36284;37.236;-121.934;2023-09-18T14:36:57;15.10;99.90
20200;DHT22;36284;37.236;-121.934;2023-09-18T14:39:24;15.10;99.90
20200;DHT22;36284;37.236;-121.934;2023-09-18T14:41:52;15.20;99.90
20200;DHT22;36284;37.236;-121.934;2023-09-18T14:44:19;15.20;99.90
20200;DHT22;36284;37.236;-121.934;2023-09-18T14:46:46;15.40;99.90
20200;DHT22;36284;37.236;-121.934;2023-09-18T14:49:13;15.40;99.90
20200;DHT22;36284;37.236;-121.934;2023-09-18T14:51:40;15.40;99.90
20200;DHT22;36284;37.236;-121.934;2023-09-18T14:54:07;15.60;99.90
20200;DHT22;36284;37.236;-121.934;2023-09-18T14:56:34;15.80;99.90
20200;DHT22;36284;37.236;-121.934;2023-09-18T14:59:07;15.90;99.90
20200;DHT22;36284;37.236;-121.934;2023-09-18T15:01:34;16.20;99.90
20200;DHT22;36284;37.236;-121.934;2023-09-18T15:04:01;16.30;99.90
20200;DHT22;36284;37.236;-121.934;2023-09-18T15:06:28;16.40;99.90
20200;DHT22;36284;37.236;-121.934;2023-09-18T15:08:56;16.50;99.90
20200;DHT22;36284;37.236;-121.934;2023-09-18T15:11:23;16.70;99.90
20200;DHT22;36284;37.236;-121.934;2023-09-18T15:13:50;16.80;99.90